createdAt,value
2023-03-04T00:00:47.977Z,55.02
2023-03-04T00:03:18.177Z,55.18
2023-03-04T00:05:49.432Z,54.69
2023-03-04T00:08:19.474Z,54.53
2023-03-04T00:10:49.320Z,54.17
2023-03-04T00:13:20.651Z,54.07
2023-03-04T00:16:09.156Z,53.83
2023-03-04T00:19:01.629Z,53.44
2023-03-04T00:21:32.317Z,53.39
2023-03-04T00:24:02.359Z,53.00
2023-03-04T00:26:32.244Z,52.58
2023-03-04T00:29:02.143Z,52.26
2023-03-04T00:31:49.849Z,52.03
2023-03-04T00:34:20.109Z,51.95
2023-03-04T00:36:50.122Z,51.89
2023-03-04T00:39:20.448Z,52.06
2023-03-04T00:41:51.337Z,51.75
2023-03-04T00:44:39.426Z,51.47
2023-03-04T00:49:56.823Z,51.82
2023-03-04T00:52:26.937Z,51.68
2023-03-04T00:54:56.949Z,51.68
2023-03-04T00:57:27.014Z,51.17
2023-03-04T00:59:56.906Z,51.24
2023-03-04T01:02:27.276Z,51.29
2023-03-04T01:04:57.390Z,51.40
2023-03-04T01:07:27.460Z,51.31
2023-03-04T01:09:57.482Z,51.13
2023-03-04T01:12:27.663Z,50.97
2023-03-04T01:14:59.100Z,50.99
2023-03-04T01:17:29.122Z,51.07
2023-03-04T01:19:59.712Z,51.09
2023-03-04T01:22:31.473Z,50.82
2023-03-04T01:25:13.237Z,50.64
2023-03-04T01:27:43.331Z,50.76
2023-03-04T01:30:31.891Z,50.94
2023-03-04T01:33:02.792Z,50.75
2023-03-04T01:35:32.851Z,50.78
2023-03-04T01:40:51.285Z,50.65
2023-03-04T01:43:31.048Z,50.28
2023-03-04T01:46:01.750Z,50.00
2023-03-04T01:48:36.256Z,49.90
2023-03-04T01:51:15.310Z,49.95
2023-03-04T01:53:48.522Z,49.88
2023-03-04T01:56:31.227Z,49.91
2023-03-04T01:59:21.854Z,50.36
2023-03-04T02:02:04.688Z,50.35
2023-03-04T02:04:37.327Z,50.34
2023-03-04T02:07:08.258Z,50.25
2023-03-04T02:09:40.431Z,50.40
2023-03-04T02:12:10.674Z,50.49
2023-03-04T02:14:41.910Z,50.46
2023-03-04T02:17:15.850Z,50.36
2023-03-04T02:20:09.700Z,50.07
2023-03-04T02:22:45.932Z,50.10
2023-03-04T02:25:23.246Z,49.57
2023-03-04T02:27:54.153Z,49.55
2023-03-04T02:30:27.606Z,49.56
2023-03-04T02:32:58.019Z,49.31
2023-03-04T02:38:17.908Z,49.43
2023-03-04T02:40:52.103Z,49.27
2023-03-04T02:43:22.926Z,49.11
2023-03-04T02:45:54.617Z,48.86
2023-03-04T02:48:43.353Z,49.13
2023-03-04T02:51:14.063Z,48.95
2023-03-04T02:53:45.791Z,48.55
2023-03-04T02:56:33.979Z,48.44
2023-03-04T02:59:04.974Z,48.08
2023-03-04T03:01:35.192Z,48.27
2023-03-04T03:04:05.124Z,47.87
2023-03-04T03:06:37.063Z,48.19
2023-03-04T03:09:07.619Z,48.17
2023-03-04T03:11:38.239Z,48.43
2023-03-04T03:16:55.400Z,46.94
2023-03-04T03:19:25.533Z,47.14
2023-03-04T03:21:58.210Z,46.56
2023-03-04T03:24:29.803Z,46.59
2023-03-04T03:26:59.866Z,46.79
2023-03-04T03:29:30.128Z,46.50
2023-03-04T03:32:00.343Z,46.89
2023-03-04T03:34:31.853Z,46.72
2023-03-04T03:37:02.390Z,46.62
2023-03-04T03:39:32.389Z,46.64
2023-03-04T03:42:03.209Z,46.50
2023-03-04T03:44:33.310Z,46.05
2023-03-04T03:47:03.568Z,46.46
2023-03-04T03:49:33.583Z,46.15
2023-03-04T03:52:03.544Z,46.49
2023-03-04T03:54:33.641Z,45.87
2023-03-04T03:57:03.520Z,45.94
2023-03-04T03:59:33.549Z,45.47
2023-03-04T04:02:03.748Z,45.81
2023-03-04T04:04:34.053Z,46.02
2023-03-04T04:07:04.731Z,45.96
2023-03-04T04:09:35.037Z,45.82
2023-03-04T04:12:08.658Z,45.83
2023-03-04T04:14:39.017Z,45.81
2023-03-04T04:17:13.039Z,46.10
2023-03-04T04:19:46.326Z,45.66
2023-03-04T04:22:18.790Z,45.82
2023-03-04T04:24:51.135Z,46.20
2023-03-04T04:30:10.422Z,45.89
2023-03-04T04:32:40.908Z,45.48
2023-03-04T04:35:11.495Z,45.77
2023-03-04T04:37:45.678Z,45.29
2023-03-04T04:40:16.261Z,44.76
2023-03-04T04:42:46.917Z,44.74
2023-03-04T04:45:17.005Z,45.28
2023-03-04T04:47:47.409Z,44.61
2023-03-04T04:50:17.938Z,44.66
2023-03-04T04:52:48.569Z,44.80
2023-03-04T04:55:20.131Z,44.56
2023-03-04T04:57:50.296Z,43.74
2023-03-04T06:39:35.665Z,43.45
2023-03-04T06:42:05.852Z,43.87
2023-03-04T06:44:35.977Z,43.60
2023-03-04T06:47:08.127Z,43.92
2023-03-04T06:49:38.326Z,43.20
2023-03-04T06:52:08.372Z,42.83
2023-03-04T06:54:38.320Z,42.84
2023-03-04T06:57:09.655Z,42.54
2023-03-04T06:59:39.373Z,42.68
2023-03-04T07:02:12.681Z,43.11
2023-03-04T07:04:43.276Z,42.84
2023-03-04T07:07:15.710Z,42.66
2023-03-04T07:09:45.773Z,42.86
2023-03-04T07:12:15.721Z,42.06
2023-03-04T07:14:45.998Z,42.20
2023-03-04T07:17:16.678Z,42.38
2023-03-04T07:19:47.711Z,42.69
2023-03-04T07:22:17.847Z,42.46
2023-03-04T07:24:47.881Z,42.45
2023-03-04T07:27:18.041Z,42.62
2023-03-04T07:29:49.265Z,42.64
2023-03-04T07:32:19.474Z,42.10
2023-03-04T07:34:49.753Z,41.61
2023-03-04T07:37:19.936Z,41.55
2023-03-04T07:39:49.983Z,41.70
2023-03-04T07:45:12.501Z,41.87
2023-03-04T07:47:43.622Z,41.50
2023-03-04T07:50:16.965Z,41.71
2023-03-04T07:52:50.798Z,42.08
2023-03-04T07:55:21.555Z,41.79
2023-03-04T07:57:51.634Z,42.67
2023-03-04T08:00:22.254Z,42.45
2023-03-04T08:02:52.463Z,41.65
2023-03-04T08:05:22.900Z,41.44
2023-03-04T08:07:53.043Z,41.73
2023-03-04T08:10:23.469Z,41.43
2023-03-04T08:12:53.536Z,41.18
2023-03-04T08:15:23.861Z,41.95
2023-03-04T08:17:54.952Z,41.42
2023-03-04T08:23:10.323Z,42.07
2023-03-04T08:25:44.914Z,42.04
2023-03-04T08:28:15.834Z,41.61
2023-03-04T08:30:46.248Z,41.90
2023-03-04T08:33:16.400Z,42.00
2023-03-04T08:35:46.315Z,42.02
2023-03-04T08:38:16.243Z,42.44
2023-03-04T08:40:46.579Z,42.93
2023-03-04T08:43:16.615Z,42.58
2023-03-04T08:45:46.852Z,42.85
2023-03-04T08:48:17.243Z,42.81
2023-03-04T08:50:49.378Z,42.82
2023-03-04T08:53:20.757Z,42.79
2023-03-04T08:56:10.341Z,43.11
2023-03-04T08:58:40.615Z,43.32
2023-03-04T09:01:12.803Z,43.10
2023-03-04T09:03:43.575Z,43.13
2023-03-04T09:06:17.600Z,41.92
2023-03-04T09:08:48.488Z,41.52
2023-03-04T09:11:20.545Z,41.66
2023-03-04T09:13:50.694Z,42.30
2023-03-04T09:16:20.677Z,42.00
2023-03-04T09:18:50.875Z,42.05
2023-03-04T09:21:20.762Z,41.99
2023-03-04T09:23:50.685Z,42.29
2023-03-04T09:26:32.061Z,42.80
2023-03-04T09:29:02.733Z,42.66
2023-03-04T09:31:33.106Z,42.52
2023-03-04T09:34:04.956Z,43.03
2023-03-04T09:36:35.067Z,43.67
2023-03-04T09:39:06.814Z,43.56
2023-03-04T09:41:42.839Z,43.89
2023-03-04T09:44:39.314Z,43.46
2023-03-04T09:47:24.403Z,42.37
2023-03-04T09:50:02.059Z,43.63
2023-03-04T09:53:02.376Z,43.16
2023-03-04T09:55:43.582Z,43.77
2023-03-04T09:58:34.205Z,43.80
2023-03-04T10:01:06.795Z,44.06
2023-03-04T10:03:51.396Z,44.22
2023-03-04T10:06:24.680Z,44.24
2023-03-04T10:09:08.662Z,44.37
2023-03-04T10:11:51.573Z,43.88
2023-03-04T10:14:24.416Z,44.60
2023-03-04T10:17:03.265Z,44.13
2023-03-04T10:19:46.575Z,43.55
2023-03-04T10:22:34.550Z,43.39
2023-03-04T10:25:17.251Z,43.41
2023-03-04T10:28:00.718Z,43.21
2023-03-04T10:30:50.924Z,43.04
2023-03-04T10:33:27.612Z,42.68
2023-03-04T10:36:13.556Z,43.70
2023-03-04T10:38:45.993Z,43.47
2023-03-04T10:41:22.494Z,43.13
2023-03-04T10:44:13.739Z,42.92
2023-03-04T10:46:46.482Z,43.29
2023-03-04T10:49:37.542Z,43.26
2023-03-04T10:52:26.110Z,42.88
2023-03-04T10:54:58.986Z,42.69
2023-03-04T10:57:32.945Z,43.03
2023-03-04T11:00:05.291Z,42.74
2023-03-04T11:02:37.841Z,42.65
2023-03-04T11:05:20.835Z,42.56
2023-03-04T11:07:57.698Z,42.78
2023-03-04T11:10:39.464Z,42.87
2023-03-04T11:13:24.704Z,43.13
2023-03-04T11:16:07.020Z,43.26
2023-03-04T11:18:57.527Z,43.19
2023-03-04T11:21:34.400Z,43.62
2023-03-04T11:24:13.329Z,43.45
2023-03-04T11:26:57.579Z,43.36
2023-03-04T11:29:33.464Z,43.60
2023-03-04T11:32:03.593Z,43.82
2023-03-04T11:34:55.491Z,43.54
2023-03-04T11:37:50.298Z,44.07
2023-03-04T11:40:41.209Z,43.46
2023-03-04T11:43:40.707Z,43.71
2023-03-04T11:46:34.230Z,43.95
2023-03-04T11:49:22.478Z,43.82
2023-03-04T11:52:17.840Z,44.15
2023-03-04T11:54:53.864Z,44.87
2023-03-04T11:57:57.668Z,45.40
2023-03-04T12:00:41.233Z,45.88
2023-03-04T12:03:29.076Z,45.97
2023-03-04T12:06:17.487Z,46.13
2023-03-04T12:08:47.495Z,46.14
2023-03-04T12:11:41.844Z,46.57
2023-03-04T12:14:51.366Z,46.78
2023-03-04T12:17:24.567Z,46.71
2023-03-04T12:20:19.024Z,47.08
2023-03-04T12:22:59.108Z,47.19
2023-03-04T12:25:49.085Z,47.16
2023-03-04T12:28:28.228Z,47.26
2023-03-04T12:31:00.862Z,47.27
2023-03-04T12:34:01.235Z,47.43
2023-03-04T12:36:42.455Z,47.62
2023-03-04T12:39:36.245Z,47.89
2023-03-04T12:42:23.408Z,48.09
2023-03-04T12:45:24.484Z,48.26
2023-03-04T12:48:09.609Z,48.37
2023-03-04T12:50:45.527Z,48.13
2023-03-04T12:53:19.745Z,48.11
2023-03-04T12:55:52.320Z,48.20
2023-03-04T12:58:28.575Z,48.15
2023-03-04T13:01:04.239Z,48.19
2023-03-04T13:03:40.728Z,48.33
2023-03-04T13:06:26.030Z,48.17
2023-03-04T13:09:05.218Z,48.33
2023-03-04T13:11:43.873Z,48.05
2023-03-04T13:14:20.478Z,48.47
2023-03-04T13:16:52.335Z,48.06
2023-03-04T13:19:53.654Z,48.68
2023-03-04T13:22:42.070Z,48.72
2023-03-04T13:25:38.744Z,48.69
2023-03-04T13:28:11.928Z,49.13
2023-03-04T13:31:07.283Z,48.79
2023-03-04T13:33:37.434Z,48.63
2023-03-04T13:36:28.270Z,48.92
2023-03-04T13:39:04.756Z,49.06
2023-03-04T13:41:50.660Z,49.01
2023-03-04T13:44:58.409Z,49.25
2023-03-04T13:47:47.503Z,49.17
2023-03-04T13:50:37.540Z,49.54
2023-03-04T13:53:29.596Z,49.68
2023-03-04T13:56:24.467Z,49.40
2023-03-04T13:59:09.661Z,49.58
2023-03-04T14:01:49.470Z,49.44
2023-03-04T14:04:27.484Z,49.13
2023-03-04T14:07:02.958Z,49.44
2023-03-04T14:09:36.415Z,49.42
2023-03-04T14:12:24.341Z,49.58
2023-03-04T14:15:01.470Z,49.47
2023-03-04T14:17:34.745Z,49.27
2023-03-04T14:20:15.603Z,49.75
2023-03-04T14:25:51.497Z,49.65
2023-03-04T14:28:29.637Z,49.71
2023-03-04T14:31:36.768Z,49.77
2023-03-04T14:34:05.380Z,49.54
2023-03-04T14:36:38.493Z,49.72
2023-03-04T14:39:10.655Z,49.87
2023-03-04T14:41:47.243Z,50.00
2023-03-04T14:44:21.038Z,49.94
2023-03-04T14:47:06.954Z,49.87
2023-03-04T14:49:42.186Z,49.63
2023-03-04T14:52:31.042Z,49.84
2023-03-04T14:55:07.781Z,49.62
2023-03-04T14:57:39.275Z,49.74
2023-03-04T15:00:30.084Z,49.51
2023-03-04T15:03:03.287Z,49.84
2023-03-04T15:05:36.553Z,49.51
2023-03-04T15:08:52.538Z,49.77
2023-03-04T15:11:28.972Z,49.67
2023-03-04T15:14:04.782Z,49.53
2023-03-04T15:16:57.594Z,49.50
2023-03-04T15:19:32.437Z,50.06
2023-03-04T15:22:10.655Z,49.56
2023-03-04T15:24:46.642Z,49.63
2023-03-04T15:27:28.132Z,49.72
2023-03-04T15:30:01.603Z,49.56
2023-03-04T15:32:35.373Z,49.48
2023-03-04T15:35:05.813Z,49.83
2023-03-04T15:37:36.570Z,50.04
2023-03-04T15:40:15.634Z,50.16
2023-03-04T15:42:53.756Z,50.15
2023-03-04T15:45:36.321Z,49.92
2023-03-04T15:48:11.468Z,49.84
2023-03-04T15:50:50.486Z,50.16
2023-03-04T15:53:34.961Z,49.80
2023-03-04T15:59:18.645Z,50.22
2023-03-04T16:01:49.683Z,49.68
2023-03-04T16:04:20.707Z,49.43
2023-03-04T16:06:52.766Z,49.94
2023-03-04T16:09:24.260Z,50.04
2023-03-04T16:12:00.456Z,50.30
2023-03-04T16:14:34.559Z,50.09
2023-03-04T16:17:06.655Z,50.38
2023-03-04T16:19:36.890Z,50.84
2023-03-04T16:22:07.546Z,51.55
2023-03-04T16:24:37.937Z,50.58
2023-03-04T16:27:20.358Z,50.58
2023-03-04T16:29:53.819Z,50.78
2023-03-04T16:32:24.031Z,50.68
2023-03-04T16:34:57.049Z,50.66
2023-03-04T16:37:28.785Z,50.34
2023-03-04T16:39:59.433Z,50.36
2023-03-04T16:42:34.751Z,50.67
2023-03-04T16:45:07.033Z,50.41
2023-03-04T16:47:38.289Z,50.93
2023-03-04T16:50:08.215Z,50.84
2023-03-04T16:52:39.428Z,50.59
2023-03-04T16:55:12.869Z,50.94
2023-03-04T16:57:43.102Z,50.83
2023-03-04T17:00:14.281Z,50.74
2023-03-04T17:02:44.562Z,51.29
2023-03-04T17:05:23.385Z,50.94
2023-03-04T17:07:53.698Z,50.68
2023-03-04T17:10:30.089Z,50.95
2023-03-04T17:13:00.237Z,51.23
2023-03-04T17:15:30.406Z,51.14
2023-03-04T17:18:00.434Z,51.19
2023-03-04T17:20:30.754Z,51.11
2023-03-04T17:23:02.445Z,51.03
2023-03-04T17:25:32.658Z,50.97
2023-03-04T17:28:02.850Z,51.39
2023-03-04T17:30:37.302Z,51.28
2023-03-04T17:33:07.507Z,51.55
2023-03-04T17:35:40.557Z,51.41
2023-03-04T17:40:53.159Z,51.33
2023-03-04T17:43:26.048Z,51.51
2023-03-04T17:46:06.109Z,51.49
2023-03-04T17:49:01.419Z,51.58
2023-03-04T17:51:40.558Z,51.41
2023-03-04T17:54:12.683Z,51.58
2023-03-04T17:56:45.699Z,51.72
2023-03-04T17:59:19.391Z,51.40
2023-03-04T18:01:51.647Z,51.43
2023-03-04T18:04:23.240Z,51.09
2023-03-04T18:06:53.375Z,51.42
2023-03-04T18:09:23.342Z,51.10
2023-03-04T18:11:53.655Z,51.37
2023-03-04T18:14:23.874Z,51.40
2023-03-04T18:16:53.904Z,51.59
2023-03-04T18:19:44.959Z,51.38
2023-03-04T18:22:15.506Z,51.39
2023-03-04T18:24:48.750Z,51.12
2023-03-04T18:27:19.004Z,51.73
2023-03-04T18:29:50.813Z,51.64
2023-03-04T18:32:21.024Z,51.64
2023-03-04T18:34:51.425Z,51.36
2023-03-04T18:37:21.685Z,51.55
2023-03-04T18:39:51.692Z,51.66
2023-03-04T18:42:21.986Z,51.75
2023-03-04T18:44:52.205Z,51.92
2023-03-04T18:47:22.622Z,51.57
2023-03-04T18:49:53.949Z,51.98
2023-03-04T18:52:23.604Z,51.72
2023-03-04T18:54:54.733Z,51.79
2023-03-04T18:57:25.040Z,51.77
2023-03-04T19:00:01.601Z,51.68
2023-03-04T19:02:37.722Z,52.20
2023-03-04T19:05:21.263Z,51.94
2023-03-04T19:07:51.481Z,52.10
2023-03-04T19:10:22.409Z,51.93
2023-03-04T19:12:52.823Z,51.77
2023-03-04T19:15:22.960Z,51.81
2023-03-04T19:17:52.901Z,52.26
2023-03-04T19:20:23.089Z,52.17
2023-03-04T19:25:42.403Z,52.17
2023-03-04T19:28:13.592Z,52.21
2023-03-04T19:30:44.428Z,52.49
2023-03-04T19:33:14.715Z,52.60
2023-03-04T19:35:47.291Z,52.77
2023-03-04T19:38:17.436Z,52.65
2023-03-04T19:40:51.912Z,52.72
2023-03-04T19:43:22.001Z,52.46
2023-03-04T19:45:58.697Z,52.74
2023-03-04T19:48:28.906Z,52.79
2023-03-04T19:50:59.114Z,52.56
2023-03-04T19:53:29.907Z,52.54
2023-03-04T19:55:59.885Z,52.71
2023-03-04T19:58:29.804Z,52.66
2023-03-04T20:01:00.179Z,52.68
2023-03-04T20:03:30.333Z,52.87
2023-03-04T20:06:11.153Z,52.77
2023-03-04T20:08:41.046Z,53.16
2023-03-04T20:11:16.707Z,53.07
2023-03-04T20:13:47.616Z,53.03
2023-03-04T20:16:17.660Z,52.85
2023-03-04T20:18:48.378Z,53.14
2023-03-04T20:21:19.134Z,53.18
2023-03-04T20:23:49.610Z,52.86
2023-03-04T20:26:20.780Z,53.34
2023-03-04T20:28:53.740Z,53.02
2023-03-04T20:31:30.680Z,53.14
2023-03-04T20:34:02.397Z,53.18
2023-03-04T20:36:33.653Z,53.13
2023-03-04T20:39:08.288Z,52.92
2023-03-04T20:41:45.621Z,52.87
2023-03-04T20:44:15.445Z,52.61
2023-03-04T20:46:50.052Z,52.83
2023-03-04T20:49:26.056Z,52.89
2023-03-04T20:54:44.120Z,52.76
2023-03-04T20:57:14.778Z,52.80
2023-03-04T20:59:45.051Z,53.04
2023-03-04T21:02:17.731Z,52.94
2023-03-04T21:04:47.826Z,52.69
2023-03-04T21:07:17.766Z,52.74
2023-03-04T21:09:47.724Z,52.77
2023-03-04T21:12:17.742Z,52.92
2023-03-04T21:14:48.347Z,52.94
2023-03-04T21:17:18.538Z,52.93
2023-03-04T21:19:48.668Z,52.88
2023-03-04T21:22:21.173Z,52.95
2023-03-04T21:24:51.244Z,52.76
2023-03-04T21:27:22.303Z,52.77
2023-03-04T21:29:52.396Z,52.74
2023-03-04T21:32:27.708Z,52.74
2023-03-04T22:09:43.978Z,53.00
2023-03-04T22:12:14.268Z,53.37
2023-03-04T22:14:44.399Z,53.22
2023-03-04T22:17:14.348Z,53.23
2023-03-04T22:19:44.561Z,53.53
2023-03-04T22:22:23.538Z,53.85
2023-03-04T22:24:54.448Z,53.60
2023-03-04T22:27:24.584Z,53.84
2023-03-04T22:29:54.637Z,53.74
2023-03-04T22:32:26.062Z,54.14
2023-03-04T22:34:56.181Z,54.24
2023-03-04T22:37:26.145Z,54.50
2023-03-04T22:39:56.249Z,54.52
2023-03-04T22:42:26.155Z,54.43
2023-03-04T22:44:57.926Z,54.54
2023-03-04T22:47:28.166Z,54.34
2023-03-04T22:49:58.231Z,54.19
2023-03-04T22:52:28.227Z,54.22
2023-03-04T22:54:58.299Z,54.53
2023-03-04T22:58:03.383Z,54.53
2023-03-04T23:00:34.480Z,54.41
2023-03-04T23:03:04.741Z,54.37
2023-03-04T23:05:35.219Z,54.66
2023-03-04T23:08:05.476Z,54.54
2023-03-04T23:10:35.638Z,54.64
2023-03-04T23:13:06.521Z,54.48
2023-03-04T23:15:36.592Z,54.74
2023-03-04T23:18:06.803Z,54.49
2023-03-04T23:20:36.915Z,54.34
2023-03-04T23:23:06.953Z,54.18
2023-03-04T23:25:41.170Z,54.03
2023-03-04T23:28:11.219Z,53.95
2023-03-04T23:30:41.134Z,53.78
2023-03-04T23:33:11.070Z,54.08
2023-03-04T23:35:41.184Z,53.97
2023-03-04T23:38:11.533Z,55.18
2023-03-04T23:40:41.955Z,54.75
2023-03-04T23:43:12.441Z,54.66
2023-03-04T23:45:42.930Z,54.59
2023-03-04T23:48:13.239Z,54.74
2023-03-04T23:50:43.593Z,54.89
2023-03-04T23:53:13.661Z,55.12
2023-03-04T23:55:44.305Z,54.65
2023-03-04T23:58:14.744Z,54.40
